Time;durP1;ratioP1;P1;durP2;ratioP2;P2;SDS_P1;SDS_P2;PMS_P1;PMS_P2;Temp;Humidity;BMP_temperature;BMP_pressure;BME280_temperature;BME280_humidity;BME280_pressure;Samples;Min_cycle;Max_cycle;Signal;HPM_P1;HPM_P2
2024/01/12 00:01:23;;;;;;;64.78;41.90;;;;;;;-0.41;100.00;103328.72;5095738;27;20031;-77
2024/01/12 00:03:49;;;;;;;66.93;41.47;;;;;;;-0.40;100.00;103330.47;5114338;27;20432;-77
2024/01/12 00:06:14;;;;;;;66.13;42.88;;;;;;;-0.37;100.00;103326.22;5109385;28;20034;-77
2024/01/12 00:08:39;;;;;;;65.55;42.28;;;;;;;-0.40;100.00;103323.63;5117043;27;20098;-77
2024/01/12 00:11:11;;;;;;;66.40;42.42;;;;;;;-0.42;100.00;103333.03;5112165;27;20053;-78
2024/01/12 00:13:38;;;;;;;63.70;41.28;;;;;;;-0.38;100.00;103334.84;5116523;27;20028;-77
2024/01/12 00:16:07;;;;;;;66.63;42.17;;;;;;;-0.41;100.00;103333.91;5110740;27;20611;-77
2024/01/12 00:18:33;;;;;;;67.07;42.33;;;;;;;-0.38;100.00;103341.72;5108747;27;20015;-77
2024/01/12 00:20:58;;;;;;;61.25;39.35;;;;;;;-0.40;100.00;103335.63;5122419;27;20052;-77
2024/01/12 00:23:23;;;;;;;63.63;41.15;;;;;;;-0.37;100.00;103331.41;5125417;27;20019;-77
2024/01/12 00:25:49;;;;;;;58.22;39.83;;;;;;;-0.39;100.00;103327.06;5084501;28;20630;-77
2024/01/12 00:28:14;;;;;;;60.38;38.53;;;;;;;-0.38;100.00;103318.47;5121773;27;20031;-77
2024/01/12 00:30:39;;;;;;;62.47;39.55;;;;;;;-0.37;100.00;103333.13;5123086;27;20030;-76
2024/01/12 00:33:05;;;;;;;61.70;39.45;;;;;;;-0.38;100.00;103331.38;5112583;27;20029;-76
2024/01/12 00:35:31;;;;;;;64.20;40.47;;;;;;;-0.39;100.00;103337.41;5125473;27;20023;-76
2024/01/12 00:37:56;;;;;;;61.13;38.90;;;;;;;-0.39;100.00;103332.25;5118331;27;20027;-76
2024/01/12 00:40:21;;;;;;;57.03;38.28;;;;;;;-0.39;100.00;103337.41;5102249;27;20398;-77
2024/01/12 00:42:52;;;;;;;59.85;39.72;;;;;;;-0.39;100.00;103337.41;5102949;27;20495;-77
2024/01/12 00:45:18;;;;;;;57.22;38.55;;;;;;;-0.40;100.00;103333.06;5115213;27;20032;-86
2024/01/12 00:47:43;;;;;;;57.67;38.13;;;;;;;-0.36;100.00;103332.28;5125589;27;20026;-86
2024/01/12 00:50:09;;;;;;;58.72;38.60;;;;;;;-0.38;100.00;103328.81;5097488;27;20023;-86
2024/01/12 00:52:35;;;;;;;61.03;40.63;;;;;;;-0.39;100.00;103342.59;5127901;27;20031;-87
2024/01/12 00:55:00;;;;;;;61.95;40.03;;;;;;;-0.35;100.00;103347.81;5123479;27;20080;-87
2024/01/12 00:57:26;;;;;;;63.17;39.00;;;;;;;-0.38;100.00;103334.84;5119937;28;20038;-87
2024/01/12 00:59:54;;;;;;;58.88;38.42;;;;;;;-0.39;100.00;103342.59;5117705;28;20046;-86
2024/01/12 01:02:19;;;;;;;62.17;38.72;;;;;;;-0.35;100.00;103339.19;5128166;28;20029;-86
2024/01/12 01:04:44;;;;;;;60.20;38.28;;;;;;;-0.36;100.00;103345.19;5120827;27;20485;-86
2024/01/12 01:07:09;;;;;;;56.88;37.80;;;;;;;-0.39;100.00;103343.44;5119417;27;20026;-85
2024/01/12 01:09:35;;;;;;;63.03;40.42;;;;;;;-0.40;100.00;103348.56;5111813;28;20055;-86
2024/01/12 01:12:00;;;;;;;62.33;39.53;;;;;;;-0.39;100.00;103335.69;5121110;27;20078;-86
2024/01/12 01:14:26;;;;;;;60.67;39.65;;;;;;;-0.40;100.00;103335.63;5118410;28;20023;-86
2024/01/12 01:16:52;;;;;;;60.95;38.85;;;;;;;-0.40;100.00;103338.22;5110131;27;20639;-87
2024/01/12 01:19:18;;;;;;;62.88;40.22;;;;;;;-0.38;100.00;103336.56;5093525;28;20075;-86
2024/01/12 01:21:43;;;;;;;63.20;40.45;;;;;;;-0.40;100.00;103338.22;5121618;27;20018;-85
2024/01/12 01:24:08;;;;;;;61.05;39.72;;;;;;;-0.38;100.00;103346.91;5129265;28;20113;-86
2024/01/12 01:26:34;;;;;;;59.25;38.90;;;;;;;-0.35;100.00;103349.53;5129349;28;20030;-85
2024/01/12 01:28:59;;;;;;;58.15;38.95;;;;;;;-0.37;100.00;103359.84;5127119;27;20023;-85
2024/01/12 01:31:25;;;;;;;61.28;40.03;;;;;;;-0.37;100.00;103361.56;5129053;28;20035;-86
2024/01/12 01:33:50;;;;;;;60.65;38.88;;;;;;;-0.36;100.00;103363.31;5130063;27;20019;-85
2024/01/12 01:36:16;;;;;;;60.90;40.08;;;;;;;-0.37;100.00;103371.91;5124942;28;20030;-85
2024/01/12 01:38:41;;;;;;;60.35;37.85;;;;;;;-0.39;100.00;103369.31;5126268;28;20110;-85
2024/01/12 01:41:07;;;;;;;59.95;40.22;;;;;;;-0.39;100.00;103373.63;5113206;28;20031;-85
2024/01/12 01:43:32;;;;;;;59.50;39.58;;;;;;;-0.39;100.00;103376.19;5108930;28;20072;-85
2024/01/12 01:45:58;;;;;;;64.72;40.97;;;;;;;-0.38;100.00;103385.69;5110430;28;20024;-85
2024/01/12 01:48:24;;;;;;;59.00;38.58;;;;;;;-0.35;100.00;103385.72;5101546;27;20023;-85
2024/01/12 01:50:49;;;;;;;61.35;39.38;;;;;;;-0.36;100.00;103381.41;5104404;28;20046;-87
2024/01/12 01:53:15;;;;;;;59.72;40.00;;;;;;;-0.36;100.00;103384.88;5122078;28;20062;-85
2024/01/12 01:55:40;;;;;;;62.20;39.40;;;;;;;-0.38;100.00;103370.19;5103953;28;20023;-85
2024/01/12 01:58:07;;;;;;;58.75;38.90;;;;;;;-0.38;100.00;103380.53;5117813;28;20073;-85
2024/01/12 02:00:32;;;;;;;59.42;39.58;;;;;;;-0.37;100.00;103374.50;5115689;27;20031;-85
2024/01/12 02:03:00;;;;;;;58.28;38.22;;;;;;;-0.37;100.00;103377.09;5090467;28;20537;-85
2024/01/12 02:05:25;;;;;;;58.85;38.17;;;;;;;-0.37;100.00;103374.50;5128307;27;20041;-85
2024/01/12 02:07:54;;;;;;;59.47;39.45;;;;;;;-0.34;100.00;103370.22;5116771;27;20024;-87
2024/01/12 02:10:19;;;;;;;59.55;37.97;;;;;;;-0.36;100.00;103363.31;5125886;27;20087;-86
2024/01/12 02:12:45;;;;;;;56.00;36.97;;;;;;;-0.35;100.00;103359.88;5118702;27;20106;-86
2024/01/12 02:15:10;;;;;;;57.40;38.60;;;;;;;-0.35;100.00;103357.28;5131079;27;20034;-86
2024/01/12 02:17:36;;;;;;;64.40;39.67;;;;;;;-0.38;100.00;103352.94;5130347;27;20494;-86
2024/01/12 02:20:02;;;;;;;59.35;39.53;;;;;;;-0.38;100.00;103347.78;5131146;27;20547;-86
2024/01/12 02:22:28;;;;;;;61.67;40.35;;;;;;;-0.35;100.00;103349.53;5113945;27;20058;-86
2024/01/12 02:24:53;;;;;;;61.45;39.22;;;;;;;-0.34;100.00;103346.09;5130030;27;20019;-86
2024/01/12 02:27:19;;;;;;;64.47;41.97;;;;;;;-0.36;100.00;103347.78;5123881;27;20027;-86
2024/01/12 02:29:46;;;;;;;67.40;43.00;;;;;;;-0.37;100.00;103358.97;5113981;27;20034;-86
2024/01/12 02:32:11;;;;;;;61.05;40.15;;;;;;;-0.36;100.00;103353.81;5121987;27;20839;-86
2024/01/12 02:34:37;;;;;;;62.30;40.45;;;;;;;-0.36;100.00;103363.31;5118706;27;20023;-86
2024/01/12 02:37:02;;;;;;;63.42;41.28;;;;;;;-0.35;100.00;103357.28;5129593;27;20169;-87
2024/01/12 02:39:28;;;;;;;65.00;40.50;;;;;;;-0.35;100.00;103357.28;5128608;27;20031;-86
2024/01/12 02:41:57;;;;;;;63.63;40.25;;;;;;;-0.35;100.00;103365.91;5127230;27;20026;-87
2024/01/12 02:44:25;;;;;;;58.28;38.45;;;;;;;-0.33;100.00;103358.16;5120305;27;20514;-86
2024/01/12 02:46:54;;;;;;;57.08;38.50;;;;;;;-0.36;100.00;103363.31;5114192;27;20023;-86
2024/01/12 02:49:19;;;;;;;59.97;39.53;;;;;;;-0.35;100.00;103359.88;5120606;27;20019;-87
2024/01/12 02:51:45;;;;;;;62.72;39.88;;;;;;;-0.35;100.00;103357.28;5100161;28;20404;-86
2024/01/12 02:54:10;;;;;;;57.97;38.80;;;;;;;-0.36;100.00;103345.19;5115921;27;20019;-86
2024/01/12 02:56:36;;;;;;;65.20;42.47;;;;;;;-0.36;100.00;103343.47;5121855;27;20065;-87
2024/01/12 02:59:01;;;;;;;62.03;39.72;;;;;;;-0.37;100.00;103335.72;5103960;27;20055;-87
2024/01/12 03:01:27;;;;;;;59.22;39.10;;;;;;;-0.39;100.00;103330.53;5096213;28;20031;-87
2024/01/12 03:03:53;;;;;;;59.88;39.60;;;;;;;-0.35;100.00;103332.28;5118648;27;20038;-86
2024/01/12 03:06:18;;;;;;;65.85;42.00;;;;;;;-0.35;100.00;103331.41;5117564;27;20391;-86
2024/01/12 03:08:44;;;;;;;65.88;40.13;;;;;;;-0.36;100.00;103330.56;5120836;27;20490;-86
2024/01/12 03:11:09;;;;;;;62.33;41.03;;;;;;;-0.37;100.00;103325.38;5124050;27;20552;-86
2024/01/12 03:13:35;;;;;;;64.95;41.75;;;;;;;-0.38;100.00;103331.38;5119655;27;20028;-86
2024/01/12 03:16:00;;;;;;;64.22;41.63;;;;;;;-0.38;100.00;103331.38;5121433;27;20031;-86
2024/01/12 03:18:27;;;;;;;67.18;42.13;;;;;;;-0.38;100.00;103334.84;5126368;27;20027;-86
2024/01/12 03:20:52;;;;;;;66.85;41.15;;;;;;;-0.38;100.00;103331.38;5124455;27;20032;-86
2024/01/12 03:23:18;;;;;;;65.28;41.47;;;;;;;-0.35;100.00;103328.84;5116744;27;20034;-86
2024/01/12 03:25:43;;;;;;;62.05;41.28;;;;;;;-0.34;100.00;103327.97;5107061;27;20068;-86
2024/01/12 03:28:09;;;;;;;56.80;38.95;;;;;;;-0.33;100.00;103324.53;5127125;27;20031;-86
2024/01/12 03:30:34;;;;;;;61.30;40.13;;;;;;;-0.36;100.00;103325.38;5128940;27;20027;-86
2024/01/12 03:33:00;;;;;;;59.58;40.08;;;;;;;-0.35;100.00;103321.94;5101621;27;20035;-86
2024/01/12 03:35:25;;;;;;;64.07;41.60;;;;;;;-0.39;100.00;103327.94;5111737;27;20395;-86
2024/01/12 03:37:53;;;;;;;63.67;41.25;;;;;;;-0.36;100.00;103332.28;5122408;27;20016;-87
2024/01/12 03:40:19;;;;;;;59.08;39.25;;;;;;;-0.35;100.00;103331.41;5125162;27;20056;-86
2024/01/12 03:42:44;;;;;;;63.08;40.72;;;;;;;-0.34;100.00;103330.56;5124716;27;20519;-87
2024/01/12 03:45:10;;;;;;;58.28;38.25;;;;;;;-0.32;100.00;103331.44;5128786;27;20479;-87
2024/01/12 03:47:35;;;;;;;62.75;40.63;;;;;;;-0.35;100.00;103328.84;5126208;27;20535;-87
2024/01/12 03:50:01;;;;;;;64.38;41.00;;;;;;;-0.37;100.00;103320.19;5114264;27;20495;-87
2024/01/12 03:52:26;;;;;;;64.18;41.38;;;;;;;-0.39;100.00;103317.59;5123549;27;20079;-87
2024/01/12 03:54:52;;;;;;;61.75;42.00;;;;;;;-0.39;100.00;103314.13;5123984;27;20031;-87
2024/01/12 03:57:17;;;;;;;58.63;39.45;;;;;;;-0.35;100.00;103315.91;5123875;27;20035;-86
2024/01/12 03:59:42;;;;;;;59.22;39.67;;;;;;;-0.36;100.00;103324.50;5127422;27;20043;-86
2024/01/12 04:02:08;;;;;;;60.85;39.63;;;;;;;-0.39;100.00;103316.72;5119847;27;20501;-87
2024/01/12 04:04:33;;;;;;;59.33;39.33;;;;;;;-0.38;100.00;103318.47;5122817;27;20106;-86
2024/01/12 04:06:58;;;;;;;60.95;39.47;;;;;;;-0.39;100.00;103306.38;5122292;27;20027;-86
2024/01/12 04:09:24;;;;;;;63.05;41.63;;;;;;;-0.38;100.00;103313.28;5093851;27;20378;-86
2024/01/12 04:11:49;;;;;;;63.80;40.13;;;;;;;-0.36;100.00;103311.56;5126636;27;20058;-86
2024/01/12 04:14:15;;;;;;;61.92;40.90;;;;;;;-0.35;100.00;103315.91;5128679;27;20107;-85
2024/01/12 04:16:40;;;;;;;63.13;40.80;;;;;;;-0.37;100.00;103309.84;5114853;27;20491;-87
2024/01/12 04:19:05;;;;;;;60.65;39.83;;;;;;;-0.36;100.00;103312.44;5119057;27;20031;-87
2024/01/12 04:21:31;;;;;;;62.33;40.42;;;;;;;-0.39;100.00;103306.38;5116497;27;20050;-86
2024/01/12 04:23:56;;;;;;;63.08;39.75;;;;;;;-0.37;100.00;103304.66;5104610;28;20035;-87
2024/01/12 04:26:22;;;;;;;60.05;39.20;;;;;;;-0.34;100.00;103304.69;5108913;28;20543;-87
2024/01/12 04:28:48;;;;;;;61.28;40.17;;;;;;;-0.34;100.00;103312.47;5110330;27;20054;-87
2024/01/12 04:31:13;;;;;;;65.22;40.83;;;;;;;-0.36;100.00;103314.16;5113078;27;20076;-86
2024/01/12 04:33:40;;;;;;;62.33;40.80;;;;;;;-0.35;100.00;103314.19;5105587;27;20114;-86
2024/01/12 04:36:06;;;;;;;63.03;40.67;;;;;;;-0.33;100.00;103316.78;5121660;27;21000;-86
2024/01/12 04:38:32;;;;;;;59.08;39.90;;;;;;;-0.37;100.00;103325.38;5115100;27;20027;-78
2024/01/12 04:40:58;;;;;;;64.28;41.38;;;;;;;-0.36;100.00;103322.78;5117359;27;20490;-78
2024/01/12 04:43:23;;;;;;;65.90;41.70;;;;;;;-0.35;100.00;103323.66;5129622;27;20027;-78
2024/01/12 04:45:48;;;;;;;64.70;41.30;;;;;;;-0.35;100.00;103321.06;5126230;27;20055;-78
2024/01/12 04:48:14;;;;;;;61.58;40.40;;;;;;;-0.36;100.00;103317.63;5122610;27;20027;-78
2024/01/12 04:50:39;;;;;;;63.15;40.42;;;;;;;-0.33;100.00;103321.97;5099528;28;20094;-78
2024/01/12 04:53:04;;;;;;;61.60;39.88;;;;;;;-0.32;100.00;103328.88;5114246;28;20026;-78
2024/01/12 04:55:30;;;;;;;61.55;40.00;;;;;;;-0.33;100.00;103322.81;5097590;28;20037;-78
2024/01/12 04:57:55;;;;;;;62.70;39.80;;;;;;;-0.33;100.00;103328.00;5128769;28;20037;-78
2024/01/12 05:00:21;;;;;;;62.80;40.53;;;;;;;-0.36;100.00;103317.63;5119413;28;20031;-78
2024/01/12 05:02:46;;;;;;;64.18;40.10;;;;;;;-0.33;100.00;103317.66;5109716;28;20057;-78
2024/01/12 05:05:12;;;;;;;58.38;38.72;;;;;;;-0.32;100.00;103318.53;5126767;27;20031;-78
2024/01/12 05:07:37;;;;;;;62.85;38.42;;;;;;;-0.32;100.00;103319.38;5122783;27;20042;-78
2024/01/12 05:10:04;;;;;;;61.30;39.65;;;;;;;-0.36;100.00;103322.78;5126042;27;20035;-78
2024/01/12 05:12:29;;;;;;;60.08;39.13;;;;;;;-0.36;100.00;103309.84;5126769;27;20038;-78
2024/01/12 05:14:55;;;;;;;59.10;39.17;;;;;;;-0.33;100.00;103311.59;5127445;28;20035;-86
2024/01/12 05:17:20;;;;;;;62.13;38.65;;;;;;;-0.34;100.00;103299.53;5124644;27;20098;-86
2024/01/12 05:19:46;;;;;;;58.60;37.60;;;;;;;-0.33;100.00;103306.44;5111044;28;20106;-87
2024/01/12 05:22:11;;;;;;;58.70;39.55;;;;;;;-0.34;100.00;103291.78;5121674;27;20026;-87
2024/01/12 05:24:37;;;;;;;58.72;37.80;;;;;;;-0.32;100.00;103293.53;5126648;27;20526;-87
2024/01/12 05:27:02;;;;;;;57.22;37.72;;;;;;;-0.31;100.00;103299.56;5115617;28;20490;-86
2024/01/12 05:29:28;;;;;;;60.13;38.85;;;;;;;-0.31;100.00;103307.31;5128421;27;20027;-87
2024/01/12 05:31:53;;;;;;;61.25;38.45;;;;;;;-0.30;100.00;103296.13;5126667;27;20639;-87
2024/01/12 05:34:18;;;;;;;59.35;37.95;;;;;;;-0.29;100.00;103297.84;5127982;27;20105;-87
2024/01/12 05:36:44;;;;;;;59.63;36.92;;;;;;;-0.30;100.00;103296.13;5120718;28;20134;-87
2024/01/12 05:39:10;;;;;;;56.92;36.25;;;;;;;-0.25;100.00;103299.63;5123912;27;20118;-86
2024/01/12 05:41:38;;;;;;;56.55;35.72;;;;;;;-0.28;100.00;103299.59;5117943;27;20031;-87
2024/01/12 05:44:03;;;;;;;53.72;34.88;;;;;;;-0.26;100.00;103297.03;5132113;27;20029;-87
2024/01/12 05:46:29;;;;;;;61.17;36.97;;;;;;;-0.26;100.00;103289.25;5118909;27;20106;-87
2024/01/12 05:48:54;;;;;;;54.78;34.30;;;;;;;-0.27;100.00;103298.75;5099418;27;20037;-87
2024/01/12 05:51:20;;;;;;;58.70;36.08;;;;;;;-0.24;100.00;103298.75;5129645;27;20033;-86
2024/01/12 05:53:46;;;;;;;49.38;34.00;;;;;;;-0.26;100.00;103308.22;5106130;27;20118;-86
2024/01/12 05:56:11;;;;;;;56.95;35.10;;;;;;;-0.25;100.00;103311.69;5120800;27;20508;-87
2024/01/12 05:58:36;;;;;;;52.30;33.63;;;;;;;-0.23;100.00;103315.16;5107347;27;20019;-87
2024/01/12 06:01:02;;;;;;;51.95;33.42;;;;;;;-0.23;100.00;103318.59;5122393;27;20119;-87
2024/01/12 06:03:28;;;;;;;48.97;32.35;;;;;;;-0.23;100.00;103316.03;5124660;27;20043;-86
2024/01/12 06:05:56;;;;;;;49.40;32.10;;;;;;;-0.23;100.00;103317.75;5131193;27;20526;-86
2024/01/12 06:08:22;;;;;;;51.90;33.78;;;;;;;-0.24;100.00;103319.47;5119550;27;20475;-86
2024/01/12 06:10:50;;;;;;;48.92;32.22;;;;;;;-0.21;100.00;103329.84;5129991;27;20051;-86
2024/01/12 06:13:16;;;;;;;54.50;32.90;;;;;;;-0.18;100.00;103324.69;5128263;27;20110;-86
2024/01/12 06:15:41;;;;;;;52.70;32.83;;;;;;;-0.16;100.00;103317.81;5122249;27;20181;-87
2024/01/12 06:18:07;;;;;;;52.65;32.05;;;;;;;-0.19;100.00;103319.50;5122046;27;20947;-85
2024/01/12 06:20:32;;;;;;;51.50;31.38;;;;;;;-0.19;100.00;103310.03;5130830;27;20391;-86
2024/01/12 06:22:58;;;;;;;48.13;30.80;;;;;;;-0.19;100.00;103315.19;5116191;27;20060;-84
2024/01/12 06:25:23;;;;;;;49.10;30.73;;;;;;;-0.20;100.00;103318.63;5127648;27;20046;-87
2024/01/12 06:27:49;;;;;;;47.35;29.88;;;;;;;-0.19;100.00;103324.69;5095575;28;20487;-86
2024/01/12 06:30:15;;;;;;;52.40;31.73;;;;;;;-0.17;100.00;103329.03;5117878;27;20031;-87
2024/01/12 06:32:40;;;;;;;48.13;30.85;;;;;;;-0.16;100.00;103332.47;5109740;27;20027;-87
2024/01/12 06:35:10;;;;;;;46.70;29.27;;;;;;;-0.17;100.00;103334.19;5124671;27;20029;-86
2024/01/12 06:37:36;;;;;;;47.63;30.08;;;;;;;-0.18;100.00;103335.03;5113500;27;20037;-87
2024/01/12 06:40:02;;;;;;;51.83;31.17;;;;;;;-0.14;100.00;103341.97;5126235;27;20024;-86
2024/01/12 06:42:28;;;;;;;52.53;31.58;;;;;;;-0.16;100.00;103340.22;5118495;27;20068;-87
2024/01/12 06:44:54;;;;;;;50.42;31.13;;;;;;;-0.14;100.00;103336.81;5123977;27;20425;-77
2024/01/12 06:47:20;;;;;;;52.88;29.92;;;;;;;-0.15;100.00;103342.84;5124380;27;20027;-76
2024/01/12 06:49:45;;;;;;;51.83;30.60;;;;;;;-0.17;100.00;103338.50;5119882;27;20031;-77
2024/01/12 06:52:11;;;;;;;50.10;29.55;;;;;;;-0.16;100.00;103335.06;5111650;27;20577;-78
2024/01/12 06:54:37;;;;;;;50.33;29.50;;;;;;;-0.16;100.00;103337.66;5124286;27;20150;-78
2024/01/12 06:57:03;;;;;;;46.47;29.35;;;;;;;-0.15;100.00;103339.38;5123996;27;20123;-78
2024/01/12 06:59:28;;;;;;;47.00;29.38;;;;;;;-0.15;100.00;103342.84;5091075;28;20024;-78
2024/01/12 07:01:54;;;;;;;46.00;28.25;;;;;;;-0.11;100.00;103347.19;5119640;27;20027;-78
2024/01/12 07:04:19;;;;;;;45.92;27.67;;;;;;;-0.09;100.00;103358.41;5126549;27;20548;-78
2024/01/12 07:06:45;;;;;;;50.97;28.40;;;;;;;-0.09;100.00;103342.91;5125746;27;20043;-78
2024/01/12 07:09:12;;;;;;;45.80;28.38;;;;;;;-0.09;100.00;103352.38;5112995;27;20023;-78
2024/01/12 07:11:43;;;;;;;45.90;27.92;;;;;;;-0.09;100.00;103349.78;5123619;27;20050;-78
2024/01/12 07:14:09;;;;;;;51.75;35.08;;;;;;;-0.13;100.00;103340.25;5106479;27;20031;-78
2024/01/12 07:16:35;;;;;;;59.65;40.15;;;;;;;-0.12;100.00;103347.16;5099949;27;20047;-78
2024/01/12 07:19:01;;;;;;;47.88;31.13;;;;;;;-0.08;100.00;103334.28;5100770;27;20038;-77
2024/01/12 07:21:26;;;;;;;60.13;35.47;;;;;;;-0.09;100.00;103332.53;5120527;27;20031;-77
2024/01/12 07:23:52;;;;;;;50.25;31.42;;;;;;;-0.06;100.00;103322.22;5101774;27;20046;-77
2024/01/12 07:26:17;;;;;;;53.22;28.35;;;;;;;-0.02;100.00;103318.81;5122249;27;20298;-77
2024/01/12 07:28:42;;;;;;;43.67;23.30;;;;;;;0.03;100.00;103312.84;5126566;27;20025;-77
2024/01/12 07:31:08;;;;;;;46.17;24.88;;;;;;;0.05;100.00;103314.59;5130110;27;20065;-77
2024/01/12 07:33:33;;;;;;;44.13;24.63;;;;;;;0.05;100.00;103317.19;5120072;27;20081;-77
2024/01/12 07:35:58;;;;;;;36.05;24.17;;;;;;;0.06;100.00;103315.47;5119779;27;20054;-77
2024/01/12 07:38:25;;;;;;;45.13;24.15;;;;;;;0.06;100.00;103315.47;5120020;27;20039;-77
2024/01/12 07:40:50;;;;;;;42.58;23.25;;;;;;;0.04;100.00;103312.84;5119325;27;20435;-79
2024/01/12 07:43:15;;;;;;;40.67;23.08;;;;;;;0.05;100.00;103324.94;5120761;27;20109;-77
2024/01/12 07:45:41;;;;;;;39.33;23.65;;;;;;;0.06;100.00;103311.16;5127738;27;20031;-77
2024/01/12 07:48:07;;;;;;;40.33;24.95;;;;;;;0.06;100.00;103313.72;5126957;27;20155;-84
2024/01/12 07:50:33;;;;;;;46.15;26.48;;;;;;;0.06;100.00;103315.47;5125487;27;20030;-84
2024/01/12 07:52:59;;;;;;;66.13;39.05;;;;;;;0.07;100.00;103323.22;5124568;27;20022;-84
2024/01/12 07:55:25;;;;;;;47.70;30.58;;;;;;;0.06;100.00;103316.31;5115665;27;20026;-85
2024/01/12 07:57:50;;;;;;;51.97;26.98;;;;;;;0.09;100.00;103320.66;5124058;27;20380;-85
2024/01/12 08:00:16;;;;;;;56.08;25.83;;;;;;;0.09;100.00;103316.34;5092198;27;20027;-85
2024/01/12 08:02:41;;;;;;;70.57;26.77;;;;;;;0.11;100.00;103299.09;5120496;27;20027;-85
2024/01/12 08:05:07;;;;;;;183.20;38.20;;;;;;;0.16;100.00;103301.72;5114179;27;20031;-85
2024/01/12 08:07:32;;;;;;;197.52;38.03;;;;;;;0.14;100.00;103306.03;5121741;27;20023;-84
2024/01/12 08:09:58;;;;;;;100.60;37.50;;;;;;;0.19;100.00;103307.81;5121244;27;20120;-85
2024/01/12 08:12:23;;;;;;;92.50;46.42;;;;;;;0.18;100.00;103315.56;5126242;27;20039;-85
2024/01/12 08:14:48;;;;;;;66.68;32.38;;;;;;;0.17;100.00;103311.22;5127470;27;20027;-85
2024/01/12 08:17:14;;;;;;;50.17;27.30;;;;;;;0.20;100.00;103319.03;5119566;27;20032;-84
2024/01/12 08:19:39;;;;;;;46.70;27.58;;;;;;;0.21;100.00;103320.75;5119584;27;20526;-85
2024/01/12 08:22:04;;;;;;;43.00;25.58;;;;;;;0.25;100.00;103327.69;5115600;27;20024;-85
2024/01/12 08:24:29;;;;;;;39.47;23.35;;;;;;;0.26;100.00;103319.94;5128178;27;20033;-84
2024/01/12 08:26:55;;;;;;;36.92;22.77;;;;;;;0.29;100.00;103324.28;5122108;27;20027;-84
2024/01/12 08:29:20;;;;;;;36.05;21.83;;;;;;;0.31;100.00;103317.38;5096848;27;20426;-85
2024/01/12 08:31:45;;;;;;;37.33;22.27;;;;;;;0.34;100.00;103330.34;5119214;27;20038;-85
2024/01/12 08:34:11;;;;;;;35.67;21.95;;;;;;;0.33;100.00;103326.03;5127988;27;20279;-85
2024/01/12 08:36:36;;;;;;;69.97;25.00;;;;;;;0.34;100.00;103322.59;5127599;27;20027;-85
2024/01/12 08:39:01;;;;;;;39.63;22.48;;;;;;;0.38;100.00;103332.13;5129270;27;20046;-85
2024/01/12 08:41:27;;;;;;;43.33;22.00;;;;;;;0.40;100.00;103327.84;5127697;27;20518;-85
2024/01/12 08:43:53;;;;;;;40.30;22.67;;;;;;;0.43;100.00;103327.00;5118872;27;20023;-85
2024/01/12 08:46:19;;;;;;;37.92;22.23;;;;;;;0.46;100.00;103333.06;5126869;27;20534;-84
2024/01/12 08:48:44;;;;;;;39.28;22.65;;;;;;;0.45;100.00;103336.50;5120714;27;20024;-85
2024/01/12 08:51:10;;;;;;;35.50;21.15;;;;;;;0.49;100.00;103332.22;5117998;27;20527;-85
2024/01/12 08:53:35;;;;;;;40.90;22.83;;;;;;;0.52;100.00;103332.25;5112096;28;20467;-85
2024/01/12 08:56:00;;;;;;;36.05;21.77;;;;;;;0.53;100.00;103324.50;5097519;27;20035;-85
2024/01/12 08:58:26;;;;;;;35.70;21.40;;;;;;;0.56;100.00;103329.69;5121725;28;20043;-85
2024/01/12 09:00:54;;;;;;;40.20;22.40;;;;;;;0.57;100.00;103328.81;5125202;27;20055;-85
2024/01/12 09:03:19;;;;;;;38.85;22.90;;;;;;;0.62;100.00;103324.53;5118140;28;20391;-85
2024/01/12 09:05:44;;;;;;;43.30;23.13;;;;;;;0.67;100.00;103328.88;5112999;28;20029;-85
2024/01/12 09:08:10;;;;;;;36.47;21.42;;;;;;;0.71;100.00;103328.06;5127341;28;20029;-85
2024/01/12 09:10:35;;;;;;;36.60;21.65;;;;;;;0.75;100.00;103337.56;5128925;27;20095;-85
2024/01/12 09:13:02;;;;;;;37.75;21.92;;;;;;;0.77;100.00;103334.13;5125255;27;20034;-85
2024/01/12 09:15:30;;;;;;;45.67;22.65;;;;;;;0.78;100.00;103335.00;5132832;27;20042;-86
2024/01/12 09:17:56;;;;;;;41.58;22.15;;;;;;;0.80;100.00;103339.38;5118793;27;20055;-85
2024/01/12 09:20:21;;;;;;;41.80;22.02;;;;;;;0.82;100.00;103336.78;5125867;27;20016;-86
2024/01/12 09:22:47;;;;;;;43.80;22.30;;;;;;;0.89;100.00;103331.66;5128370;27;20117;-86
2024/01/12 09:25:13;;;;;;;46.60;23.08;;;;;;;0.92;100.00;103328.22;5133312;27;20030;-87
2024/01/12 09:27:38;;;;;;;37.13;21.40;;;;;;;0.97;100.00;103342.06;5127198;27;20019;-86
2024/01/12 09:30:04;;;;;;;41.08;22.48;;;;;;;0.98;100.00;103333.41;5131545;27;20109;-86
2024/01/12 09:32:29;;;;;;;42.25;22.83;;;;;;;1.03;100.00;103331.72;5131152;27;20033;-85
2024/01/12 09:34:55;;;;;;;37.67;21.38;;;;;;;1.03;100.00;103328.25;5131947;27;20403;-86
2024/01/12 09:37:20;;;;;;;42.03;22.80;;;;;;;1.09;100.00;103326.56;5126819;27;20030;-86
2024/01/12 09:39:45;;;;;;;40.92;21.33;;;;;;;1.12;100.00;103329.16;5124357;27;20373;-86
2024/01/12 09:42:14;;;;;;;33.70;19.83;;;;;;;1.16;100.00;103337.81;5129624;27;20599;-86
2024/01/12 09:44:45;;;;;;;39.28;21.75;;;;;;;1.23;100.00;103334.44;5131096;27;20076;-86
2024/01/12 09:47:12;;;;;;;33.00;19.85;;;;;;;1.27;100.00;103330.13;5129408;27;20029;-87
2024/01/12 09:49:38;;;;;;;34.25;19.80;;;;;;;1.32;100.00;103338.78;5131060;27;20053;-86
2024/01/12 09:52:07;;;;;;;35.65;19.38;;;;;;;1.34;100.00;103326.69;5130764;27;20092;-87
2024/01/12 09:54:34;;;;;;;37.80;20.23;;;;;;;1.34;100.00;103334.47;5131432;27;20482;-86
2024/01/12 09:57:02;;;;;;;33.47;20.17;;;;;;;1.39;100.00;103330.16;5121079;27;20027;-86
2024/01/12 09:59:28;;;;;;;35.78;19.05;;;;;;;1.41;100.00;103334.50;5109630;28;20036;-86
2024/01/12 10:01:56;;;;;;;32.40;19.65;;;;;;;1.48;100.00;103337.97;5110593;28;20494;-86
2024/01/12 10:04:21;;;;;;;35.30;18.98;;;;;;;1.49;100.00;103327.59;5111578;28;20024;-86
2024/01/12 10:06:50;;;;;;;33.17;18.83;;;;;;;1.54;100.00;103333.69;5111456;28;20050;-86
2024/01/12 10:09:17;;;;;;;32.75;18.33;;;;;;;1.59;100.00;103323.31;5126202;27;20025;-87
2024/01/12 10:11:42;;;;;;;34.00;18.63;;;;;;;1.62;100.00;103330.28;5131023;27;20050;-86
2024/01/12 10:14:07;;;;;;;34.22;18.77;;;;;;;1.65;100.00;103317.31;5128729;27;20027;-86
2024/01/12 10:16:33;;;;;;;37.67;17.83;;;;;;;1.71;100.00;103327.69;5111538;27;20051;-86
2024/01/12 10:18:59;;;;;;;33.05;18.02;;;;;;;1.69;100.00;103325.09;5108732;28;20480;-86
2024/01/12 10:21:25;;;;;;;37.58;19.00;;;;;;;1.74;100.00;103323.38;5113142;27;20514;-86
2024/01/12 10:24:11;;;;;;;30.10;17.30;;;;;;;1.80;100.00;103338.97;5107823;28;20027;-85
2024/01/12 10:26:37;;;;;;;39.03;18.80;;;;;;;1.77;100.00;103328.56;5107478;28;20039;-77
2024/01/12 10:29:03;;;;;;;31.52;17.10;;;;;;;1.79;100.00;103339.81;5109764;28;20020;-77
2024/01/12 10:31:31;;;;;;;35.90;17.80;;;;;;;1.86;100.00;103335.50;5109974;28;20087;-78
2024/01/12 10:33:59;;;;;;;30.23;17.65;;;;;;;1.89;100.00;103328.59;5110887;28;20024;-77
2024/01/12 10:36:26;;;;;;;31.60;17.10;;;;;;;1.93;100.00;103328.59;5110955;28;20082;-77
2024/01/12 10:38:55;;;;;;;29.95;17.17;;;;;;;1.97;100.00;103322.53;5113356;28;20015;-78
2024/01/12 10:41:21;;;;;;;31.85;17.02;;;;;;;1.98;100.00;103316.47;5106270;28;20110;-78
2024/01/12 10:43:57;;;;;;;27.83;16.42;;;;;;;2.00;100.00;103309.56;5110281;28;20023;-78
2024/01/12 10:46:47;;;;;;;29.10;16.73;;;;;;;2.06;100.00;103307.88;5092653;28;20035;-78
2024/01/12 10:49:25;;;;;;;32.08;16.42;;;;;;;2.07;100.00;103301.81;5080508;28;20051;-78
2024/01/12 10:52:00;;;;;;;32.95;16.52;;;;;;;2.07;100.00;103301.81;5110048;28;20024;-78
2024/01/12 10:54:30;;;;;;;33.25;16.70;;;;;;;2.03;100.00;103302.66;5111102;28;20027;-77
2024/01/12 10:56:55;;;;;;;35.95;16.20;;;;;;;2.05;100.00;103305.28;5092730;28;20028;-77
2024/01/12 10:59:25;;;;;;;29.75;15.77;;;;;;;2.02;100.00;103303.53;5108591;28;20501;-77